createdAt,value
2022-12-08T00:03:45.024Z,3.43
2022-12-08T00:09:06.250Z,3.53
2022-12-08T00:14:08.625Z,3.97
2022-12-08T00:19:10.994Z,3.80
2022-12-08T00:24:13.457Z,4.50
2022-12-08T00:29:17.750Z,4.13
2022-12-08T00:34:20.606Z,3.80
2022-12-08T00:39:23.098Z,4.23
2022-12-08T00:44:25.599Z,3.73
2022-12-08T00:49:28.232Z,3.90
2022-12-08T00:54:30.747Z,4.20
2022-12-08T00:59:33.223Z,3.53
2022-12-08T01:04:35.630Z,4.27
2022-12-08T01:09:38.325Z,4.23
2022-12-08T01:14:40.682Z,4.37
2022-12-08T01:19:43.282Z,3.87
2022-12-08T01:24:45.918Z,3.70
2022-12-08T01:29:48.289Z,3.67
2022-12-08T01:34:50.666Z,3.37
2022-12-08T01:39:53.041Z,3.60
2022-12-08T01:45:00.488Z,3.50
2022-12-08T01:50:06.071Z,3.70
2022-12-08T01:55:31.212Z,3.53
2022-12-08T02:00:33.650Z,3.13
2022-12-08T02:05:39.079Z,3.43
2022-12-08T02:10:43.119Z,3.60
2022-12-08T02:15:54.690Z,3.87
2022-12-08T02:21:29.025Z,3.30
2022-12-08T02:26:40.215Z,3.33
2022-12-08T02:32:13.460Z,3.63
2022-12-08T02:37:23.002Z,3.90
2022-12-08T02:42:43.789Z,3.87
2022-12-08T02:47:46.857Z,4.10
2022-12-08T02:52:49.439Z,3.53
2022-12-08T02:58:24.123Z,3.37
2022-12-08T03:04:00.337Z,3.53
2022-12-08T03:09:17.214Z,3.30
2022-12-08T03:14:21.611Z,3.23
2022-12-08T03:19:27.898Z,3.47
2022-12-08T03:24:36.118Z,3.17
2022-12-08T03:29:38.606Z,3.80
2022-12-08T03:34:44.674Z,4.10
2022-12-08T03:39:47.280Z,3.40
2022-12-08T03:44:49.669Z,3.70
2022-12-08T03:49:52.093Z,3.57
2022-12-08T03:54:54.474Z,3.83
2022-12-08T03:59:57.041Z,3.70
2022-12-08T04:04:59.559Z,3.63
2022-12-08T04:10:02.217Z,3.67
2022-12-08T04:15:05.268Z,3.30
2022-12-08T04:20:08.078Z,3.47
2022-12-08T04:25:10.606Z,3.90
2022-12-08T04:30:13.258Z,3.67
2022-12-08T04:35:15.674Z,3.53
2022-12-08T04:40:18.611Z,3.60
2022-12-08T04:45:21.136Z,3.87
2022-12-08T04:50:23.521Z,4.00
2022-12-08T04:55:26.101Z,3.50
2022-12-08T05:00:28.708Z,3.07
2022-12-08T05:05:31.094Z,3.57
2022-12-08T05:10:33.832Z,3.97
2022-12-08T05:15:36.335Z,5.53
2022-12-08T05:20:38.753Z,5.63
2022-12-08T05:25:41.256Z,4.33
2022-12-08T05:30:43.715Z,3.97
2022-12-08T05:35:46.108Z,3.20
2022-12-08T05:40:48.566Z,3.50
2022-12-08T05:45:51.303Z,3.47
2022-12-08T05:50:53.929Z,3.53
2022-12-08T05:55:56.510Z,3.67
2022-12-08T06:00:59.293Z,3.83
2022-12-08T06:06:01.838Z,3.70
2022-12-08T06:11:04.207Z,3.63
2022-12-08T06:16:07.352Z,3.37
2022-12-08T06:21:12.247Z,3.60
2022-12-08T06:26:15.564Z,3.27
2022-12-08T06:31:20.773Z,3.40
2022-12-08T06:36:25.844Z,4.00
2022-12-08T06:41:28.733Z,3.90
2022-12-08T06:46:31.179Z,4.00
2022-12-08T06:51:33.659Z,4.00
2022-12-08T06:56:36.071Z,3.80
2022-12-08T07:01:38.504Z,4.20
2022-12-08T07:06:40.955Z,3.27
2022-12-08T07:11:43.334Z,3.13
2022-12-08T07:16:45.835Z,3.33
2022-12-08T07:21:48.331Z,2.93
2022-12-08T07:26:50.833Z,3.50
2022-12-08T07:31:53.236Z,3.83
2022-12-08T07:36:55.682Z,3.23
2022-12-08T07:41:58.673Z,2.77
2022-12-08T07:47:02.438Z,3.40
2022-12-08T07:52:04.837Z,3.23
2022-12-08T07:57:07.325Z,3.80
2022-12-08T08:02:25.987Z,3.37
2022-12-08T08:07:30.703Z,3.87
2022-12-08T08:12:33.536Z,3.83
2022-12-08T08:17:37.281Z,3.60
2022-12-08T08:22:39.865Z,3.60
2022-12-08T08:27:42.885Z,3.90
2022-12-08T08:32:45.407Z,3.53
2022-12-08T08:37:49.415Z,3.47
2022-12-08T08:42:52.152Z,3.63
2022-12-08T08:47:54.543Z,3.60
2022-12-08T08:52:56.995Z,3.93
2022-12-08T08:57:59.683Z,3.50
2022-12-08T09:03:02.216Z,3.60
2022-12-08T09:08:04.825Z,3.00
2022-12-08T09:13:07.324Z,3.70
2022-12-08T09:18:09.818Z,3.50
2022-12-08T09:23:12.261Z,3.30
2022-12-08T09:28:15.243Z,3.47
2022-12-08T09:33:17.785Z,3.20
2022-12-08T09:38:20.225Z,3.30
2022-12-08T09:43:47.211Z,3.07
2022-12-08T09:48:59.092Z,3.30
2022-12-08T09:54:19.473Z,3.83
2022-12-08T09:59:44.460Z,3.90
2022-12-08T10:04:46.961Z,3.43
2022-12-08T10:10:01.502Z,3.31
2022-12-08T10:15:25.156Z,3.33
2022-12-08T10:20:50.654Z,3.07
2022-12-08T10:26:00.935Z,3.57
2022-12-08T10:31:03.507Z,3.27
2022-12-08T10:36:06.397Z,3.37
2022-12-08T10:41:11.786Z,3.33
2022-12-08T10:46:20.796Z,3.37
2022-12-08T10:51:42.735Z,3.10
2022-12-08T10:56:55.530Z,2.70
2022-12-08T11:01:58.424Z,2.90
2022-12-08T11:07:01.526Z,2.90
2022-12-08T11:12:15.228Z,2.90
2022-12-08T11:17:22.256Z,3.27
2022-12-08T11:22:30.441Z,2.70
2022-12-08T11:27:37.147Z,2.87
2022-12-08T11:32:43.037Z,2.70
2022-12-08T11:37:47.620Z,2.50
2022-12-08T11:43:08.700Z,2.90
2022-12-08T11:48:19.526Z,2.83
2022-12-08T11:53:29.527Z,3.03
2022-12-08T11:58:57.547Z,2.43
2022-12-08T12:04:00.694Z,2.43
2022-12-08T12:09:16.788Z,2.77
2022-12-08T12:14:42.950Z,2.57
2022-12-08T12:19:48.474Z,2.70
2022-12-08T12:24:52.593Z,2.43
2022-12-08T12:29:59.724Z,2.60
2022-12-08T12:35:02.498Z,2.37
2022-12-08T12:40:22.439Z,2.33
2022-12-08T12:45:33.708Z,2.63
2022-12-08T12:50:46.706Z,2.70
2022-12-08T12:55:59.870Z,2.57
2022-12-08T13:01:11.855Z,3.10
2022-12-08T13:06:22.179Z,2.80
2022-12-08T13:11:25.082Z,2.80
2022-12-08T13:16:31.817Z,2.50
2022-12-08T13:21:39.901Z,2.50
2022-12-08T13:26:47.936Z,2.73
2022-12-08T13:31:56.255Z,2.90
2022-12-08T13:37:28.647Z,2.60
2022-12-08T13:42:50.797Z,2.90
2022-12-08T13:48:35.310Z,2.60
2022-12-08T13:59:18.805Z,2.70
2022-12-08T14:05:09.352Z,3.00
2022-12-08T14:09:47.037Z,2.70
2022-12-08T14:15:08.561Z,2.80
2022-12-08T14:20:19.800Z,2.50
2022-12-08T14:25:24.077Z,2.53
2022-12-08T14:30:31.499Z,2.50
2022-12-08T14:35:38.930Z,2.53
2022-12-08T14:40:49.242Z,2.80
2022-12-08T14:45:54.431Z,2.53
2022-12-08T14:51:02.572Z,2.50
2022-12-08T14:56:36.998Z,2.80
2022-12-08T15:01:40.004Z,2.87
2022-12-08T15:07:12.271Z,3.00
2022-12-08T15:12:14.784Z,2.70
2022-12-08T15:17:48.970Z,2.80
2022-12-08T15:22:52.329Z,2.73
2022-12-08T15:27:56.508Z,2.90
2022-12-08T15:33:02.050Z,2.87
2022-12-08T15:38:05.815Z,2.90
2022-12-08T15:43:11.069Z,2.73
2022-12-08T15:48:25.788Z,3.23
2022-12-08T15:53:28.445Z,2.43
2022-12-08T15:58:52.987Z,2.70
2022-12-08T16:09:21.396Z,3.00
2022-12-08T16:15:30.329Z,2.50
2022-12-08T16:19:46.757Z,2.70
2022-12-08T16:24:49.188Z,3.20
2022-12-08T16:29:51.988Z,3.20
2022-12-08T16:34:55.135Z,3.00
2022-12-08T16:39:58.859Z,3.10
2022-12-08T16:45:07.028Z,2.90
2022-12-08T16:50:20.515Z,3.00
2022-12-08T16:55:22.924Z,3.10
2022-12-08T17:00:28.784Z,2.83
2022-12-08T17:05:31.643Z,3.07
2022-12-08T17:10:35.743Z,3.03
2022-12-08T17:15:39.776Z,3.50
2022-12-08T17:20:42.210Z,3.53
2022-12-08T17:25:45.973Z,3.70
2022-12-08T17:30:48.367Z,3.80
2022-12-08T17:35:52.676Z,3.53
2022-12-08T17:40:58.762Z,4.10
2022-12-08T17:46:01.677Z,4.10
2022-12-08T17:51:08.772Z,4.17
2022-12-08T17:56:18.082Z,4.60
2022-12-08T18:01:20.794Z,4.40
2022-12-08T18:06:25.780Z,3.70
2022-12-08T18:11:32.865Z,3.73
2022-12-08T18:16:36.087Z,3.90
2022-12-08T18:21:39.565Z,3.97
2022-12-08T18:26:42.023Z,4.07
2022-12-08T18:31:44.443Z,4.20
2022-12-08T18:36:47.604Z,3.93
2022-12-08T18:41:50.405Z,3.70
2022-12-08T18:46:55.467Z,3.67
2022-12-08T18:51:57.916Z,3.70
2022-12-08T18:57:00.699Z,3.60
2022-12-08T19:02:03.335Z,3.93
2022-12-08T19:07:08.643Z,4.30
2022-12-08T19:12:13.078Z,4.40
2022-12-08T19:17:15.409Z,5.17
2022-12-08T19:22:17.792Z,4.90
2022-12-08T19:27:20.315Z,4.33
2022-12-08T19:32:22.935Z,4.43
2022-12-08T19:37:25.488Z,4.03
2022-12-08T19:42:46.310Z,4.70
2022-12-08T19:47:49.349Z,5.53
2022-12-08T19:52:52.420Z,4.80
2022-12-08T19:57:56.757Z,3.93
2022-12-08T20:03:00.240Z,3.80
2022-12-08T20:08:03.206Z,4.20
2022-12-08T20:13:25.707Z,6.90
2022-12-08T20:18:29.016Z,7.13
2022-12-08T20:23:32.387Z,5.03
2022-12-08T20:28:35.997Z,5.23
2022-12-08T20:33:38.398Z,4.70
2022-12-08T20:38:41.127Z,5.00
2022-12-08T20:43:47.537Z,5.00
2022-12-08T20:48:50.039Z,3.90
2022-12-08T20:53:52.582Z,4.10
2022-12-08T20:58:56.224Z,3.90
2022-12-08T21:03:59.225Z,3.87
2022-12-08T21:09:02.160Z,3.60
2022-12-08T21:14:05.360Z,4.20
2022-12-08T21:19:08.474Z,4.13
2022-12-08T21:24:11.238Z,4.17
2022-12-08T21:29:13.757Z,4.10
2022-12-08T21:34:16.253Z,4.47
2022-12-08T21:39:18.851Z,3.97
2022-12-08T21:44:21.584Z,5.00
2022-12-08T21:49:24.129Z,4.37
2022-12-08T21:54:26.808Z,5.00
2022-12-08T21:59:29.965Z,5.13
2022-12-08T22:04:32.619Z,4.20
2022-12-08T22:09:35.435Z,3.97
2022-12-08T22:14:39.575Z,4.07
2022-12-08T22:19:42.001Z,4.07
2022-12-08T22:24:44.517Z,4.80
2022-12-08T22:29:47.630Z,3.80
2022-12-08T22:34:49.984Z,4.73
2022-12-08T22:39:52.750Z,3.80
2022-12-08T22:44:55.187Z,3.97
2022-12-08T22:49:57.651Z,4.87
2022-12-08T22:55:00.295Z,4.73
2022-12-08T23:00:03.633Z,3.97
2022-12-08T23:05:06.964Z,4.00
2022-12-08T23:10:11.287Z,3.67
2022-12-08T23:15:14.358Z,3.87
2022-12-08T23:20:16.957Z,3.50
2022-12-08T23:25:19.495Z,3.43
2022-12-08T23:30:22.220Z,3.20
2022-12-08T23:35:24.673Z,3.67
2022-12-08T23:40:27.129Z,3.70
2022-12-08T23:45:29.927Z,4.10
2022-12-08T23:50:32.669Z,3.40
2022-12-08T23:55:35.297Z,3.73
